createdAt,value
2023-08-13T00:02:02.852Z,6.03
2023-08-13T00:04:30.357Z,6.23
2023-08-13T00:06:58.203Z,6.60
2023-08-13T00:09:25.886Z,6.17
2023-08-13T00:11:53.443Z,6.30
2023-08-13T00:14:21.329Z,6.70
2023-08-13T00:16:49.859Z,8.30
2023-08-13T00:19:16.821Z,8.20
2023-08-13T00:21:54.803Z,8.00
2023-08-13T00:24:31.357Z,9.57
2023-08-13T00:26:58.439Z,8.50
2023-08-13T00:29:26.748Z,8.10
2023-08-13T00:32:02.248Z,9.30
2023-08-13T00:34:29.220Z,9.37
2023-08-13T00:36:56.325Z,8.37
2023-08-13T00:39:23.942Z,10.40
2023-08-13T00:41:51.390Z,8.40
2023-08-13T00:44:19.856Z,7.83
2023-08-13T00:46:47.401Z,6.27
2023-08-13T00:49:15.570Z,6.50
2023-08-13T00:51:42.907Z,5.77
2023-08-13T00:54:10.597Z,6.10
2023-08-13T00:56:38.330Z,5.73
2023-08-13T00:59:06.627Z,5.57
2023-08-13T01:01:34.886Z,5.40
2023-08-13T01:04:02.253Z,4.93
2023-08-13T01:06:46.670Z,5.17
2023-08-13T01:09:55.213Z,5.43
2023-08-13T01:12:23.300Z,5.03
2023-08-13T01:15:15.667Z,5.20
2023-08-13T01:17:44.134Z,5.53
2023-08-13T01:20:12.212Z,4.90
2023-08-13T01:22:41.488Z,5.00
2023-08-13T01:25:10.654Z,5.13
2023-08-13T01:28:17.499Z,5.20
2023-08-13T01:30:48.702Z,4.90
2023-08-13T01:33:28.515Z,5.10
2023-08-13T01:36:02.429Z,5.20
2023-08-13T01:38:31.925Z,5.30
2023-08-13T01:41:02.123Z,5.47
2023-08-13T01:43:30.472Z,6.07
2023-08-13T01:46:02.288Z,6.00
2023-08-13T01:48:30.045Z,6.10
2023-08-13T01:50:57.536Z,6.47
2023-08-13T01:53:26.042Z,6.17
2023-08-13T01:55:53.693Z,6.50
2023-08-13T01:58:21.142Z,6.50
2023-08-13T02:00:48.584Z,6.47
2023-08-13T02:03:16.311Z,6.80
2023-08-13T02:05:44.286Z,6.80
2023-08-13T02:08:11.859Z,6.60
2023-08-13T02:10:39.395Z,6.70
2023-08-13T02:13:07.040Z,6.10
2023-08-13T02:15:35.445Z,5.57
2023-08-13T02:18:06.643Z,6.07
2023-08-13T02:20:34.237Z,6.03
2023-08-13T02:23:01.854Z,6.23
2023-08-13T02:25:29.199Z,6.77
2023-08-13T02:27:58.134Z,6.70
2023-08-13T02:30:25.122Z,6.50
2023-08-13T02:32:53.060Z,6.53
2023-08-13T02:35:20.323Z,6.77
2023-08-13T02:37:47.894Z,6.60
2023-08-13T02:40:17.088Z,6.23
2023-08-13T02:42:44.559Z,6.00
2023-08-13T02:45:11.992Z,6.53
2023-08-13T02:47:39.173Z,6.43
2023-08-13T02:50:08.130Z,6.17
2023-08-13T02:52:35.689Z,6.40
2023-08-13T02:55:03.483Z,6.30
2023-08-13T02:57:30.639Z,6.40
2023-08-13T02:59:57.893Z,6.80
2023-08-13T03:02:25.104Z,6.50
2023-08-13T03:04:52.958Z,6.67
2023-08-13T03:07:20.414Z,6.63
2023-08-13T03:09:47.975Z,6.97
2023-08-13T03:12:15.540Z,6.37
2023-08-13T03:14:43.852Z,6.83
2023-08-13T03:17:12.056Z,7.33
2023-08-13T03:19:40.222Z,6.93
2023-08-13T03:22:07.855Z,7.10
2023-08-13T03:24:36.325Z,7.27
2023-08-13T03:27:04.432Z,7.30
2023-08-13T03:29:32.909Z,7.70
2023-08-13T03:32:00.417Z,7.67
2023-08-13T03:34:27.947Z,7.50
2023-08-13T03:36:55.340Z,7.93
2023-08-13T03:39:22.446Z,7.90
2023-08-13T03:41:49.981Z,8.10
2023-08-13T03:44:17.268Z,7.50
2023-08-13T03:46:44.382Z,8.30
2023-08-13T03:49:11.480Z,7.77
2023-08-13T03:51:40.217Z,7.30
2023-08-13T03:54:10.093Z,7.03
2023-08-13T03:56:37.930Z,7.47
2023-08-13T03:59:05.233Z,7.93
2023-08-13T04:01:32.907Z,7.77
2023-08-13T04:04:00.132Z,7.90
2023-08-13T04:06:27.551Z,7.67
2023-08-13T04:08:55.322Z,7.93
2023-08-13T04:11:25.112Z,7.63
2023-08-13T04:13:53.214Z,8.10
2023-08-13T04:16:20.533Z,7.77
2023-08-13T04:18:48.864Z,8.10
2023-08-13T04:21:16.260Z,8.27
2023-08-13T04:23:43.307Z,8.43
2023-08-13T04:26:10.949Z,8.53
2023-08-13T04:28:38.343Z,8.33
2023-08-13T04:31:06.174Z,8.10
2023-08-13T04:33:37.755Z,8.43
2023-08-13T04:36:05.924Z,8.20
2023-08-13T04:38:33.562Z,8.00
2023-08-13T04:41:06.500Z,8.20
2023-08-13T04:43:39.924Z,8.90
2023-08-13T04:46:08.332Z,8.53
2023-08-13T04:48:49.100Z,8.23
2023-08-13T04:51:24.066Z,8.90
2023-08-13T04:53:51.607Z,8.53
2023-08-13T04:56:20.377Z,8.03
2023-08-13T04:58:48.067Z,7.90
2023-08-13T05:01:16.144Z,7.73
2023-08-13T05:03:49.409Z,7.90
2023-08-13T05:06:16.827Z,7.97
2023-08-13T05:08:43.681Z,8.03
2023-08-13T05:11:11.813Z,7.63
2023-08-13T05:13:38.931Z,8.03
2023-08-13T05:16:06.397Z,8.00
2023-08-13T05:18:34.157Z,7.87
2023-08-13T05:21:02.074Z,7.90
2023-08-13T05:23:29.284Z,7.77
2023-08-13T05:25:56.647Z,7.97
2023-08-13T05:28:24.514Z,7.80
2023-08-13T05:30:52.195Z,8.33
2023-08-13T05:33:20.411Z,7.93
2023-08-13T05:35:47.579Z,7.80
2023-08-13T05:38:14.738Z,8.25
2023-08-13T05:40:43.401Z,7.40
2023-08-13T05:43:11.112Z,8.27
2023-08-13T05:45:38.064Z,7.38
2023-08-13T05:48:06.631Z,7.63
2023-08-13T05:50:34.585Z,7.80
2023-08-13T05:53:02.368Z,7.85
2023-08-13T05:55:30.689Z,7.05
2023-08-13T05:57:58.463Z,7.35
2023-08-13T06:00:25.582Z,7.80
2023-08-13T06:02:52.765Z,7.53
2023-08-13T06:05:20.459Z,7.68
2023-08-13T06:07:47.945Z,7.93
2023-08-13T06:10:15.104Z,8.27
2023-08-13T06:12:42.869Z,7.68
2023-08-13T06:15:11.610Z,7.80
2023-08-13T06:17:40.064Z,8.10
2023-08-13T06:20:08.162Z,7.85
2023-08-13T06:22:35.796Z,8.52
2023-08-13T06:25:03.888Z,8.20
2023-08-13T06:27:30.852Z,8.93
2023-08-13T06:30:09.719Z,8.38
2023-08-13T06:32:38.050Z,8.00
2023-08-13T06:35:06.163Z,7.50
2023-08-13T06:37:38.954Z,8.50
2023-08-13T06:40:18.723Z,8.90
2023-08-13T06:42:46.130Z,9.73
2023-08-13T06:45:14.154Z,9.57
2023-08-13T06:47:41.184Z,9.60
2023-08-13T06:50:09.147Z,8.73
2023-08-13T06:52:37.229Z,8.75
2023-08-13T06:55:05.143Z,8.43
2023-08-13T06:57:32.306Z,8.65
2023-08-13T06:59:59.256Z,8.50
2023-08-13T07:02:26.361Z,7.35
2023-08-13T07:04:53.773Z,7.50
2023-08-13T07:07:21.173Z,7.88
2023-08-13T07:09:48.270Z,6.95
2023-08-13T07:12:16.026Z,7.40
2023-08-13T07:14:43.810Z,7.00
2023-08-13T07:17:11.174Z,7.13
2023-08-13T07:19:39.186Z,7.15
2023-08-13T07:22:06.191Z,6.90
2023-08-13T07:24:34.140Z,8.25
2023-08-13T07:27:03.312Z,7.72
2023-08-13T07:29:30.078Z,7.65
2023-08-13T07:31:57.587Z,7.97
2023-08-13T07:34:25.210Z,7.85
2023-08-13T07:36:54.329Z,8.13
2023-08-13T07:39:23.945Z,8.60
2023-08-13T07:41:51.137Z,8.00
2023-08-13T07:44:18.887Z,7.20
2023-08-13T07:46:46.092Z,6.10
2023-08-13T07:49:13.453Z,6.40
2023-08-13T07:51:41.394Z,7.03
2023-08-13T07:54:08.396Z,6.20
2023-08-13T07:56:36.174Z,5.60
2023-08-13T07:59:03.769Z,5.50
2023-08-13T08:01:31.322Z,5.45
2023-08-13T08:03:59.100Z,5.30
2023-08-13T08:06:29.056Z,5.65
2023-08-13T08:08:56.431Z,5.18
2023-08-13T08:11:24.590Z,5.40
2023-08-13T08:13:52.137Z,5.45
2023-08-13T08:16:19.407Z,5.05
2023-08-13T08:18:46.231Z,4.80
2023-08-13T08:21:13.390Z,5.10
2023-08-13T08:23:41.888Z,5.18
2023-08-13T08:26:08.848Z,4.88
2023-08-13T08:28:37.883Z,5.00
2023-08-13T08:31:06.891Z,5.32
2023-08-13T08:33:34.441Z,4.90
2023-08-13T08:36:01.886Z,5.32
2023-08-13T08:38:29.111Z,5.25
2023-08-13T08:40:58.546Z,5.47
2023-08-13T08:43:31.079Z,5.35
2023-08-13T08:45:59.563Z,5.20
2023-08-13T08:48:33.582Z,6.07
2023-08-13T08:51:01.076Z,5.45
2023-08-13T08:53:29.481Z,4.85
2023-08-13T08:55:57.069Z,5.47
2023-08-13T08:58:24.194Z,5.30
2023-08-13T09:00:51.780Z,4.57
2023-08-13T09:03:19.098Z,5.40
2023-08-13T09:05:46.576Z,4.93
2023-08-13T09:08:16.834Z,5.10
2023-08-13T09:10:45.734Z,4.85
2023-08-13T09:13:13.796Z,5.10
2023-08-13T09:15:45.392Z,5.20
2023-08-13T09:18:12.861Z,5.03
2023-08-13T09:20:47.206Z,5.00
2023-08-13T09:23:25.037Z,5.40
2023-08-13T09:25:57.361Z,5.10
2023-08-13T09:28:27.853Z,5.57
2023-08-13T09:30:55.208Z,5.53
2023-08-13T09:33:22.595Z,4.70
2023-08-13T09:35:49.598Z,5.35
2023-08-13T09:38:17.150Z,4.85
2023-08-13T09:40:46.094Z,5.00
2023-08-13T09:43:17.988Z,5.30
2023-08-13T09:45:45.762Z,4.80
2023-08-13T09:48:16.516Z,5.50
2023-08-13T09:50:44.550Z,5.10
2023-08-13T09:53:16.275Z,5.10
2023-08-13T09:55:52.051Z,4.88
2023-08-13T09:58:20.575Z,4.90
2023-08-13T10:00:48.153Z,4.82
2023-08-13T10:03:18.436Z,4.60
2023-08-13T10:05:46.019Z,4.63
2023-08-13T10:08:13.841Z,4.70
2023-08-13T10:10:42.191Z,4.90
2023-08-13T10:13:10.235Z,4.93
2023-08-13T10:15:38.018Z,4.60
2023-08-13T10:18:05.740Z,4.50
2023-08-13T10:20:33.155Z,4.47
2023-08-13T10:23:02.938Z,5.20
2023-08-13T10:25:31.361Z,4.82
2023-08-13T10:27:58.667Z,4.78
2023-08-13T10:30:26.458Z,3.95
2023-08-13T10:33:02.462Z,4.93
2023-08-13T10:35:39.217Z,4.93
2023-08-13T10:38:11.277Z,4.78
2023-08-13T10:40:59.338Z,4.97
2023-08-13T10:43:27.326Z,4.47
2023-08-13T10:45:54.682Z,4.50
2023-08-13T10:48:32.042Z,4.38
2023-08-13T10:51:00.050Z,4.60
2023-08-13T10:53:29.025Z,4.18
2023-08-13T10:56:02.353Z,4.40
2023-08-13T10:58:40.225Z,4.10
2023-08-13T11:01:11.162Z,4.63
2023-08-13T11:03:46.395Z,4.55
2023-08-13T11:06:15.740Z,4.40
2023-08-13T11:08:48.686Z,4.20
2023-08-13T11:11:17.738Z,4.18
2023-08-13T11:13:46.524Z,3.58
2023-08-13T11:16:15.748Z,4.20
2023-08-13T11:18:43.895Z,3.90
2023-08-13T11:21:11.211Z,4.03
2023-08-13T11:23:38.589Z,4.10
2023-08-13T11:26:09.750Z,4.32
2023-08-13T11:28:36.971Z,4.00
2023-08-13T11:31:04.280Z,3.75
2023-08-13T11:33:32.321Z,3.90
2023-08-13T11:36:00.529Z,3.95
2023-08-13T11:38:28.163Z,4.15
2023-08-13T11:40:56.076Z,4.00
2023-08-13T11:43:23.882Z,3.80
2023-08-13T11:45:51.941Z,3.97
2023-08-13T11:48:21.848Z,4.10
2023-08-13T11:50:56.148Z,3.80
2023-08-13T11:53:30.622Z,3.72
2023-08-13T11:55:58.793Z,3.78
2023-08-13T11:58:27.492Z,3.90
2023-08-13T12:00:54.733Z,3.78
2023-08-13T12:03:22.144Z,3.55
2023-08-13T12:05:53.501Z,3.80
2023-08-13T12:08:21.661Z,3.72
2023-08-13T12:10:49.227Z,3.75
2023-08-13T12:13:17.011Z,3.67
2023-08-13T12:15:44.389Z,4.00
2023-08-13T12:18:12.537Z,3.88
2023-08-13T12:20:40.118Z,3.88
2023-08-13T12:23:07.343Z,3.60
2023-08-13T12:25:35.055Z,3.75
2023-08-13T12:28:02.550Z,3.50
2023-08-13T12:30:30.352Z,3.78
2023-08-13T12:32:58.475Z,3.55
2023-08-13T12:35:25.443Z,3.65
2023-08-13T12:37:52.910Z,3.53
2023-08-13T12:40:20.245Z,3.28
2023-08-13T12:42:47.646Z,3.15
2023-08-13T12:45:15.146Z,3.30
2023-08-13T12:47:42.620Z,3.10
2023-08-13T12:50:10.776Z,3.30
2023-08-13T12:52:39.773Z,2.90
2023-08-13T12:55:08.138Z,3.35
2023-08-13T12:57:35.462Z,3.00
2023-08-13T13:00:02.924Z,3.30
2023-08-13T13:02:30.634Z,3.22
2023-08-13T13:04:58.082Z,3.03
2023-08-13T13:07:25.693Z,3.10
2023-08-13T13:09:52.772Z,3.28
2023-08-13T13:12:21.290Z,2.97
2023-08-13T13:14:48.523Z,2.90
2023-08-13T13:17:17.313Z,2.88
2023-08-13T13:19:44.723Z,2.90
2023-08-13T13:22:13.518Z,2.60
2023-08-13T13:24:41.712Z,3.10
2023-08-13T13:27:08.786Z,3.17
2023-08-13T13:29:36.170Z,2.80
2023-08-13T13:32:03.539Z,2.95
2023-08-13T13:34:31.346Z,2.83
2023-08-13T13:36:58.953Z,2.90
2023-08-13T13:39:26.619Z,3.10
2023-08-13T13:41:54.482Z,3.00
2023-08-13T13:44:23.425Z,3.10
2023-08-13T13:46:51.650Z,2.97
2023-08-13T13:49:19.329Z,3.10
2023-08-13T13:51:46.353Z,3.22
2023-08-13T13:54:13.871Z,3.42
2023-08-13T13:56:42.152Z,3.30
2023-08-13T13:59:09.353Z,3.10
2023-08-13T14:01:40.832Z,2.95
2023-08-13T14:04:10.079Z,3.25
2023-08-13T14:06:37.180Z,3.25
2023-08-13T14:09:04.489Z,3.40
2023-08-13T14:11:32.662Z,3.28
2023-08-13T14:14:00.768Z,3.50
2023-08-13T14:16:28.459Z,3.30
2023-08-13T14:18:56.706Z,3.25
2023-08-13T14:21:23.967Z,3.53
2023-08-13T14:23:51.318Z,3.35
2023-08-13T14:26:18.937Z,3.55
2023-08-13T14:28:46.386Z,3.40
2023-08-13T14:31:14.765Z,3.28
2023-08-13T14:33:42.705Z,3.25
2023-08-13T14:36:10.061Z,3.17
2023-08-13T14:38:39.951Z,3.53
2023-08-13T14:41:06.891Z,3.30
2023-08-13T14:43:36.376Z,3.30
2023-08-13T14:46:03.985Z,3.47
2023-08-13T14:48:31.832Z,3.35
2023-08-13T14:50:59.068Z,3.35
2023-08-13T14:53:26.830Z,3.20
2023-08-13T14:55:54.198Z,3.60
2023-08-13T14:58:25.199Z,3.40
2023-08-13T15:00:52.964Z,3.40
2023-08-13T15:03:20.990Z,3.70
2023-08-13T15:05:48.516Z,3.65
2023-08-13T15:08:16.634Z,3.47
2023-08-13T15:10:45.923Z,3.25
2023-08-13T15:13:13.268Z,3.40
2023-08-13T15:15:41.135Z,3.47
2023-08-13T15:18:09.062Z,3.22
2023-08-13T15:20:36.743Z,3.30
2023-08-13T15:23:04.412Z,3.33
2023-08-13T15:25:44.922Z,3.80
2023-08-13T15:28:20.186Z,3.88
2023-08-13T15:30:47.911Z,3.65
2023-08-13T15:33:15.333Z,3.50
2023-08-13T15:35:55.976Z,3.50
2023-08-13T15:38:26.438Z,3.60
2023-08-13T15:40:53.850Z,3.45
2023-08-13T15:43:22.360Z,3.22
2023-08-13T15:45:49.764Z,3.40
2023-08-13T15:48:17.784Z,3.30
2023-08-13T15:50:45.683Z,3.20
2023-08-13T15:53:12.834Z,3.33
2023-08-13T15:55:40.712Z,3.03
2023-08-13T15:58:08.440Z,3.10
2023-08-13T16:00:37.048Z,3.33
2023-08-13T16:03:05.210Z,3.13
2023-08-13T16:05:32.808Z,3.25
2023-08-13T16:08:00.916Z,3.20
2023-08-13T16:10:29.796Z,3.17
2023-08-13T16:12:58.403Z,3.03
2023-08-13T16:15:25.717Z,3.38
2023-08-13T16:17:52.653Z,3.35
2023-08-13T16:20:20.174Z,3.17
2023-08-13T16:22:47.575Z,3.17
2023-08-13T16:25:16.061Z,3.20
2023-08-13T16:27:43.758Z,3.20
2023-08-13T16:30:12.441Z,3.22
2023-08-13T16:32:40.752Z,3.20
2023-08-13T16:35:08.815Z,3.28
2023-08-13T16:37:36.216Z,3.33
2023-08-13T16:40:04.439Z,3.20
2023-08-13T16:42:40.763Z,3.17
2023-08-13T16:45:18.341Z,3.10
2023-08-13T16:47:45.268Z,3.20
2023-08-13T16:50:15.512Z,2.95
2023-08-13T16:52:43.401Z,3.10
2023-08-13T16:55:13.199Z,2.95
2023-08-13T16:57:40.909Z,3.25
2023-08-13T17:00:13.987Z,3.65
2023-08-13T17:02:47.267Z,3.15
2023-08-13T17:05:15.242Z,3.22
2023-08-13T17:07:42.961Z,3.20
2023-08-13T17:10:11.303Z,2.92
2023-08-13T17:12:41.318Z,2.75
2023-08-13T17:15:22.830Z,3.00
2023-08-13T17:17:54.139Z,2.83
2023-08-13T17:20:22.747Z,3.00
2023-08-13T17:22:51.155Z,3.05
2023-08-13T17:25:18.439Z,3.22
2023-08-13T17:27:46.604Z,3.03
2023-08-13T17:30:14.209Z,2.90
2023-08-13T17:32:41.796Z,3.38
2023-08-13T17:35:09.294Z,3.03
2023-08-13T17:37:37.004Z,2.80
2023-08-13T17:40:05.975Z,3.13
2023-08-13T17:42:33.363Z,3.30
2023-08-13T17:45:00.782Z,3.17
2023-08-13T17:47:30.253Z,4.20
2023-08-13T17:49:58.403Z,3.70
2023-08-13T17:52:27.742Z,3.95
2023-08-13T17:54:57.124Z,4.70
2023-08-13T17:57:25.724Z,5.68
2023-08-13T17:59:54.384Z,6.75
2023-08-13T18:02:38.900Z,5.25
2023-08-13T18:05:08.229Z,5.00
2023-08-13T18:07:35.651Z,5.00
2023-08-13T18:10:03.262Z,4.32
2023-08-13T18:12:30.184Z,4.30
2023-08-13T18:14:57.249Z,4.30
2023-08-13T18:17:24.884Z,3.97
2023-08-13T18:19:52.346Z,4.63
2023-08-13T18:22:19.672Z,4.43
2023-08-13T18:24:47.299Z,4.55
2023-08-13T18:27:14.878Z,4.85
2023-08-13T18:29:42.596Z,4.10
2023-08-13T18:32:09.905Z,4.43
2023-08-13T18:34:37.975Z,4.22
2023-08-13T18:37:05.391Z,4.03
2023-08-13T18:39:35.390Z,4.13
2023-08-13T18:42:02.861Z,4.40
2023-08-13T18:44:30.306Z,4.60
2023-08-13T18:46:57.586Z,3.75
2023-08-13T18:49:24.702Z,6.13
2023-08-13T18:51:51.912Z,7.13
2023-08-13T18:54:19.722Z,4.72
2023-08-13T18:56:47.100Z,4.72
2023-08-13T18:59:13.897Z,4.60
2023-08-13T19:01:42.678Z,4.10
2023-08-13T19:04:10.039Z,3.97
2023-08-13T19:06:37.104Z,4.10
2023-08-13T19:09:06.039Z,4.60
2023-08-13T19:11:32.964Z,7.40
2023-08-13T19:14:10.622Z,4.45
2023-08-13T19:16:38.595Z,3.85
2023-08-13T19:19:06.719Z,4.78
2023-08-13T19:21:35.760Z,5.15
2023-08-13T19:24:04.024Z,4.10
2023-08-13T19:26:31.715Z,4.20
2023-08-13T19:29:00.129Z,3.85
2023-08-13T19:31:28.187Z,3.63
2023-08-13T19:33:55.671Z,4.22
2023-08-13T19:36:22.417Z,4.57
2023-08-13T19:38:49.636Z,7.28
2023-08-13T19:41:16.521Z,5.28
2023-08-13T19:43:43.582Z,5.50
2023-08-13T19:46:10.382Z,4.88
2023-08-13T19:48:37.014Z,5.25
2023-08-13T19:51:04.491Z,6.35
2023-08-13T19:53:31.805Z,5.80
2023-08-13T19:55:59.009Z,5.78
2023-08-13T19:58:26.822Z,5.30
2023-08-13T20:00:58.651Z,8.32
2023-08-13T20:03:26.005Z,7.00
2023-08-13T20:05:53.018Z,4.90
2023-08-13T20:08:21.418Z,8.23
2023-08-13T20:10:48.752Z,16.92
2023-08-13T20:13:16.292Z,6.68
2023-08-13T20:15:43.749Z,4.90
2023-08-13T20:18:11.120Z,8.38
2023-08-13T20:20:37.830Z,6.10
2023-08-13T20:23:05.181Z,4.72
2023-08-13T20:25:34.110Z,4.40
2023-08-13T20:28:02.249Z,4.45
2023-08-13T20:30:29.202Z,4.13
2023-08-13T20:32:56.618Z,4.30
2023-08-13T20:35:24.067Z,4.20
2023-08-13T20:37:51.630Z,5.07
2023-08-13T20:40:19.709Z,10.10
2023-08-13T20:42:46.672Z,6.00
2023-08-13T20:45:13.533Z,5.85
2023-08-13T20:47:40.716Z,4.50
2023-08-13T20:50:17.694Z,5.07
2023-08-13T20:52:50.849Z,5.80
2023-08-13T20:55:17.965Z,5.47
2023-08-13T20:57:45.678Z,4.65
2023-08-13T21:00:13.631Z,5.15
2023-08-13T21:02:41.928Z,4.60
2023-08-13T21:05:10.760Z,5.00
2023-08-13T21:07:37.416Z,4.32
2023-08-13T21:10:04.971Z,4.50
2023-08-13T21:12:31.984Z,4.72
2023-08-13T21:14:59.152Z,5.15
2023-08-13T21:17:27.026Z,4.90
2023-08-13T21:19:54.010Z,4.75
2023-08-13T21:22:20.818Z,4.93
2023-08-13T21:24:48.489Z,5.03
2023-08-13T21:27:15.764Z,4.80
2023-08-13T21:29:44.235Z,4.82
2023-08-13T21:32:12.054Z,5.18
2023-08-13T21:34:39.352Z,4.93
2023-08-13T21:37:06.224Z,5.15
2023-08-13T21:39:35.305Z,5.38
2023-08-13T21:42:01.987Z,4.97
2023-08-13T21:44:28.863Z,5.07
2023-08-13T21:46:55.974Z,5.43
2023-08-13T21:49:22.651Z,5.18
2023-08-13T21:51:50.503Z,5.30
2023-08-13T21:54:17.233Z,4.95
2023-08-13T21:56:44.063Z,4.90
2023-08-13T21:59:11.682Z,5.03
2023-08-13T22:01:39.081Z,5.10
2023-08-13T22:04:06.711Z,5.40
2023-08-13T22:06:35.232Z,5.05
2023-08-13T22:09:02.321Z,5.68
2023-08-13T22:11:30.079Z,5.15
2023-08-13T22:13:57.395Z,5.25
2023-08-13T22:16:24.921Z,5.40
2023-08-13T22:18:52.432Z,5.32
2023-08-13T22:21:21.134Z,5.47
2023-08-13T22:23:48.468Z,4.95
2023-08-13T22:26:18.403Z,5.07
2023-08-13T22:28:48.013Z,5.05
2023-08-13T22:31:16.097Z,5.40
2023-08-13T22:33:43.717Z,5.45
2023-08-13T22:36:12.781Z,5.80
2023-08-13T22:38:40.455Z,5.43
2023-08-13T22:41:07.430Z,5.43
2023-08-13T22:43:34.794Z,5.40
2023-08-13T22:46:01.721Z,5.60
2023-08-13T22:48:28.993Z,5.38
2023-08-13T22:50:56.377Z,5.38
2023-08-13T22:53:23.570Z,5.40
2023-08-13T22:55:50.974Z,5.72
2023-08-13T22:58:18.258Z,5.70
2023-08-13T23:00:46.554Z,5.50
2023-08-13T23:03:13.662Z,5.63
2023-08-13T23:05:41.084Z,5.80
2023-08-13T23:08:08.471Z,5.90
2023-08-13T23:10:36.048Z,5.63
2023-08-13T23:13:03.414Z,5.35
2023-08-13T23:15:31.582Z,5.75
2023-08-13T23:17:59.563Z,5.78
2023-08-13T23:20:26.949Z,6.10
2023-08-13T23:22:55.862Z,5.90
2023-08-13T23:25:23.726Z,5.78
2023-08-13T23:27:51.170Z,5.85
2023-08-13T23:30:19.577Z,6.35
2023-08-13T23:32:47.484Z,5.90
2023-08-13T23:35:15.052Z,6.10
2023-08-13T23:37:42.670Z,6.65
2023-08-13T23:40:10.397Z,6.22
2023-08-13T23:42:37.914Z,6.47
2023-08-13T23:45:06.357Z,6.40
2023-08-13T23:47:33.710Z,6.13
2023-08-13T23:50:04.595Z,6.13
2023-08-13T23:52:33.106Z,6.43
2023-08-13T23:55:00.071Z,6.15
2023-08-13T23:57:27.438Z,6.70
2023-08-13T23:59:54.789Z,6.30
